Time,TemperatureF,DewpointF,PressureIn,WindDirection,WindDirectionDegrees,WindSpeedMPH,WindSpeedGustMPH,Humidity,HourlyPrecipIn,Conditions,Clouds,dailyrainin,SoftwareType,DateUTC
2014-04-20 00:01:00,41.2,17.5,0.00,ESE,106,0.0,0.0,38,0.00,,---,0.00,VWS V15.00,2014-04-20 04:01:00,
2014-04-20 00:02:00,41.2,17.5,0.00,ESE,106,0.0,0.0,38,0.00,,---,0.00,VWS V15.00,2014-04-20 04:02:00,
2014-04-20 00:03:00,41.2,17.5,0.00,ESE,106,0.0,0.0,38,0.00,,---,0.00,VWS V15.00,2014-04-20 04:03:00,
2014-04-20 00:04:00,41.0,17.4,0.00,ESE,106,0.0,0.0,38,0.00,,---,0.00,VWS V15.00,2014-04-20 04:04:00,
2014-04-20 00:07:00,41.0,17.4,0.00,ESE,106,0.0,0.0,38,0.00,,---,0.00,VWS V15.00,2014-04-20 04:07:00,
2014-04-20 00:08:00,41.0,17.4,0.00,ESE,106,0.0,0.0,38,0.00,,---,0.00,VWS V15.00,2014-04-20 04:08:00,
2014-04-20 00:13:00,40.8,17.8,0.00,ESE,106,0.0,0.0,39,0.00,,---,0.00,VWS V15.00,2014-04-20 04:13:00,
2014-04-20 00:19:00,40.8,17.8,0.00,ESE,106,0.0,0.0,39,0.00,,---,0.00,VWS V15.00,2014-04-20 04:19:00,
2014-04-20 00:24:00,41.0,17.4,0.00,ESE,106,0.0,0.0,38,0.00,,---,0.00,VWS V15.00,2014-04-20 04:24:00,
2014-04-20 01:01:00,40.3,17.3,0.00,ESE,106,0.0,0.0,39,0.00,,---,0.00,VWS V15.00,2014-04-20 05:01:00,
2014-04-20 01:06:00,39.9,17.0,0.00,ESE,106,0.0,0.0,39,0.00,,---,0.00,VWS V15.00,2014-04-20 05:06:00,
2014-04-20 01:12:00,39.9,17.0,0.00,WSW,248,0.0,0.0,39,0.00,,---,0.00,VWS V15.00,2014-04-20 05:12:00,
2014-04-20 01:17:00,39.6,16.7,0.00,WSW,248,0.0,0.0,39,0.00,,---,0.00,VWS V15.00,2014-04-20 05:17:00,
2014-04-20 01:22:00,39.2,16.3,0.00,WSW,248,0.0,0.0,39,0.00,,---,0.00,VWS V15.00,2014-04-20 05:22:00,
2014-04-20 01:28:00,39.0,16.2,0.00,WSW,248,0.0,0.0,39,0.00,,---,0.00,VWS V15.00,2014-04-20 05:28:00,
2014-04-20 01:52:00,39.7,16.8,0.00,WSW,248,0.0,0.0,39,0.00,,---,0.00,VWS V15.00,2014-04-20 05:52:00,
2014-04-20 01:58:00,39.6,16.7,0.00,WSW,248,0.0,0.0,39,0.00,,---,0.00,VWS V15.00,2014-04-20 05:58:00,
2014-04-20 02:04:00,39.4,16.5,0.00,WSW,248,0.0,0.0,39,0.00,,---,0.00,VWS V15.00,2014-04-20 06:04:00,
2014-04-20 02:09:00,39.2,16.3,0.00,WSW,248,0.0,0.0,39,0.00,,---,0.00,VWS V15.00,2014-04-20 06:09:00,
2014-04-20 02:14:00,39.0,16.2,0.00,WSW,248,0.0,0.0,39,0.00,,---,0.00,VWS V15.00,2014-04-20 06:14:00,
2014-04-20 02:19:00,39.2,16.3,0.00,WSW,248,0.0,0.0,39,0.00,,---,0.00,VWS V15.00,2014-04-20 06:19:00,
2014-04-20 02:25:00,39.2,16.3,0.00,WSW,248,0.0,0.0,39,0.00,,---,0.00,VWS V15.00,2014-04-20 06:25:00,
2014-04-20 03:01:00,39.9,17.0,0.00,WSW,248,0.0,0.0,39,0.00,,---,0.00,VWS V15.00,2014-04-20 07:01:00,
2014-04-20 03:06:00,39.6,16.7,0.00,WSW,248,0.0,0.0,39,0.00,,---,0.00,VWS V15.00,2014-04-20 07:06:00,
2014-04-20 03:11:00,39.4,16.5,0.00,WSW,248,0.0,0.0,39,0.00,,---,0.00,VWS V15.00,2014-04-20 07:11:00,
2014-04-20 03:16:00,39.4,16.5,0.00,WSW,248,0.0,0.0,39,0.00,,---,0.00,VWS V15.00,2014-04-20 07:16:00,
2014-04-20 03:21:00,39.4,16.5,0.00,WSW,248,0.0,0.0,39,0.00,,---,0.00,VWS V15.00,2014-04-20 07:21:00,
2014-04-20 03:27:00,39.2,16.3,0.00,WSW,248,0.0,0.0,39,0.00,,---,0.00,VWS V15.00,2014-04-20 07:27:00,
2014-04-20 03:52:00,39.7,16.8,0.00,WSW,248,0.0,0.0,39,0.00,,---,0.00,VWS V15.00,2014-04-20 07:52:00,
2014-04-20 03:57:00,39.6,16.7,0.00,WSW,248,0.0,0.0,39,0.00,,---,0.00,VWS V15.00,2014-04-20 07:57:00,
2014-04-20 04:03:00,39.4,16.5,0.00,WSW,248,0.0,0.0,39,0.00,,---,0.00,VWS V15.00,2014-04-20 08:03:00,
2014-04-20 04:09:00,39.7,16.8,0.00,WSW,248,0.0,0.0,39,0.00,,---,0.00,VWS V15.00,2014-04-20 08:09:00,
2014-04-20 04:14:00,39.6,16.7,0.00,WSW,248,0.0,0.0,39,0.00,,---,0.00,VWS V15.00,2014-04-20 08:14:00,
2014-04-20 04:20:00,39.6,16.7,0.00,ESE,114,0.0,0.0,39,0.00,,---,0.00,VWS V15.00,2014-04-20 08:20:00,
2014-04-20 04:26:00,40.5,17.5,0.00,ESE,114,0.0,0.0,39,0.00,,---,0.00,VWS V15.00,2014-04-20 08:26:00,
2014-04-20 05:01:00,41.0,17.4,0.00,SSW,209,0.0,0.0,38,0.00,,---,0.00,VWS V15.00,2014-04-20 09:01:00,
2014-04-20 05:06:00,40.6,17.6,0.00,SSW,209,0.0,0.0,39,0.00,,---,0.00,VWS V15.00,2014-04-20 09:06:00,
2014-04-20 05:12:00,39.9,17.0,0.00,SSW,209,0.0,0.0,39,0.00,,---,0.00,VWS V15.00,2014-04-20 09:12:00,
2014-04-20 05:17:00,39.9,17.0,0.00,SW,217,0.0,0.0,39,0.00,,---,0.00,VWS V15.00,2014-04-20 09:17:00,
2014-04-20 05:22:00,39.9,17.0,0.00,WSW,253,0.0,0.0,39,0.00,,---,0.00,VWS V15.00,2014-04-20 09:22:00,
2014-04-20 05:28:00,39.7,16.8,0.00,WSW,253,0.0,0.0,39,0.00,,---,0.00,VWS V15.00,2014-04-20 09:28:00,
2014-04-20 05:52:00,39.0,16.2,0.00,WSW,253,0.0,0.0,39,0.00,,---,0.00,VWS V15.00,2014-04-20 09:52:00,
2014-04-20 05:57:00,39.0,16.2,0.00,WSW,253,0.0,0.0,39,0.00,,---,0.00,VWS V15.00,2014-04-20 09:57:00,
2014-04-20 06:02:00,39.0,16.2,0.00,WSW,253,0.0,0.0,39,0.00,,---,0.00,VWS V15.00,2014-04-20 10:02:00,
2014-04-20 06:07:00,39.0,16.2,0.00,WSW,253,0.0,0.0,39,0.00,,---,0.00,VWS V15.00,2014-04-20 10:07:00,
2014-04-20 06:13:00,38.5,15.7,0.00,WSW,253,0.0,0.0,39,0.00,,---,0.00,VWS V15.00,2014-04-20 10:13:00,
2014-04-20 06:19:00,38.1,15.4,0.00,WSW,253,0.0,0.0,39,0.00,,---,0.00,VWS V15.00,2014-04-20 10:19:00,
2014-04-20 06:24:00,37.8,15.0,0.00,WSW,253,0.0,0.0,39,0.00,,---,0.00,VWS V15.00,2014-04-20 10:24:00,
2014-04-20 07:01:00,39.6,16.7,0.00,WSW,256,0.0,3.1,39,0.00,,---,0.00,VWS V15.00,2014-04-20 11:01:00,
2014-04-20 07:06:00,40.1,17.1,0.00,WSW,256,0.0,0.0,39,0.00,,---,0.00,VWS V15.00,2014-04-20 11:06:00,
2014-04-20 07:11:00,40.3,17.3,0.00,WSW,256,0.0,0.0,39,0.00,,---,0.00,VWS V15.00,2014-04-20 11:11:00,
2014-04-20 07:16:00,40.3,17.3,0.00,WSW,256,0.0,0.0,39,0.00,,---,0.00,VWS V15.00,2014-04-20 11:16:00,
2014-04-20 07:22:00,40.6,17.6,0.00,WSW,255,0.0,0.0,39,0.00,,---,0.00,VWS V15.00,2014-04-20 11:22:00,
2014-04-20 07:28:00,41.0,17.4,0.00,WSW,255,0.0,0.0,38,0.00,,---,0.00,VWS V15.00,2014-04-20 11:28:00,
2014-04-20 07:52:00,44.4,20.4,0.00,West,277,0.0,2.2,38,0.00,,---,0.00,VWS V15.00,2014-04-20 11:52:00,
2014-04-20 07:57:00,45.5,21.4,0.00,West,278,0.0,0.0,38,0.00,,---,0.00,VWS V15.00,2014-04-20 11:57:00,
2014-04-20 08:03:00,46.2,22.0,0.00,West,278,0.0,0.0,38,0.00,,---,0.00,VWS V15.00,2014-04-20 12:03:00,
2014-04-20 08:08:00,47.1,22.2,0.00,West,278,0.0,0.0,37,0.00,,---,0.00,VWS V15.00,2014-04-20 12:08:00,
2014-04-20 08:14:00,48.2,23.2,0.00,West,278,0.0,0.0,37,0.00,,---,0.00,VWS V15.00,2014-04-20 12:14:00,
2014-04-20 08:19:00,48.7,23.6,0.00,West,277,0.0,0.0,37,0.00,,---,0.00,VWS V15.00,2014-04-20 12:19:00,
2014-04-20 08:25:00,49.6,24.5,0.00,West,279,0.0,0.0,37,0.00,,---,0.00,VWS V15.00,2014-04-20 12:25:00,
2014-04-20 09:00:00,52.5,26.4,0.00,West,260,0.0,3.6,36,0.00,,---,0.00,VWS V15.00,2014-04-20 13:00:00,
2014-04-20 09:06:00,52.9,26.7,0.00,ESE,122,0.0,0.0,36,0.00,,---,0.00,VWS V15.00,2014-04-20 13:06:00,
2014-04-20 09:11:00,53.2,27.0,0.00,ESE,122,0.0,0.0,36,0.00,,---,0.00,VWS V15.00,2014-04-20 13:11:00,
2014-04-20 09:16:00,53.8,27.5,0.00,ESE,111,0.0,0.0,36,0.00,,---,0.00,VWS V15.00,2014-04-20 13:16:00,
2014-04-20 09:22:00,54.1,27.8,0.00,ESE,112,0.0,0.0,36,0.00,,---,0.00,VWS V15.00,2014-04-20 13:22:00,
2014-04-20 09:28:00,54.5,28.1,0.00,ESE,117,0.0,0.0,36,0.00,,---,0.00,VWS V15.00,2014-04-20 13:28:00,
2014-04-20 09:52:00,55.6,28.4,0.00,ESE,117,0.0,0.0,35,0.00,,---,0.00,VWS V15.00,2014-04-20 13:52:00,
2014-04-20 09:57:00,55.9,28.7,0.00,ESE,118,0.0,0.0,35,0.00,,---,0.00,VWS V15.00,2014-04-20 13:57:00,
2014-04-20 10:03:00,56.3,29.0,0.00,ESE,105,0.0,0.0,35,0.00,,---,0.00,VWS V15.00,2014-04-20 14:03:00,
2014-04-20 10:08:00,56.1,28.9,0.00,ESE,119,0.0,0.0,35,0.00,,---,0.00,VWS V15.00,2014-04-20 14:08:00,
2014-04-20 10:14:00,56.3,29.0,0.00,ESE,118,0.0,0.0,35,0.00,,---,0.00,VWS V15.00,2014-04-20 14:14:00,
2014-04-20 10:20:00,56.3,29.0,0.00,ESE,109,0.0,0.0,35,0.00,,---,0.00,VWS V15.00,2014-04-20 14:20:00,
2014-04-20 10:25:00,56.7,29.3,0.00,ESE,115,0.0,0.0,35,0.00,,---,0.00,VWS V15.00,2014-04-20 14:25:00,
2014-04-20 11:00:00,57.9,30.5,0.00,ESE,115,0.0,0.0,35,0.00,,---,0.00,VWS V15.00,2014-04-20 15:00:00,
2014-04-20 11:06:00,58.3,30.8,0.00,ESE,115,0.0,0.0,35,0.00,,---,0.00,VWS V15.00,2014-04-20 15:06:00,
2014-04-20 11:11:00,58.8,31.2,0.00,SW,234,0.0,0.0,35,0.00,,---,0.00,VWS V15.00,2014-04-20 15:11:00,
2014-04-20 11:17:00,59.4,31.0,0.00,ESE,109,0.0,3.1,34,0.00,,---,0.00,VWS V15.00,2014-04-20 15:17:00,
2014-04-20 11:23:00,59.9,31.5,0.00,SE,136,0.0,0.0,34,0.00,,---,0.00,VWS V15.00,2014-04-20 15:23:00,
2014-04-20 11:28:00,60.1,31.6,0.00,SW,234,2.2,2.2,34,0.00,,---,0.00,VWS V15.00,2014-04-20 15:28:00,
2014-04-20 11:52:00,60.3,31.8,0.00,East,93,0.0,3.1,34,0.00,,---,0.00,VWS V15.00,2014-04-20 15:52:00,
2014-04-20 11:57:00,60.4,32.0,0.00,South,184,0.0,2.2,34,0.00,,---,0.00,VWS V15.00,2014-04-20 15:57:00,
2014-04-20 12:02:00,60.3,31.8,0.00,South,184,0.0,0.0,34,0.00,,---,0.00,VWS V15.00,2014-04-20 16:02:00,
2014-04-20 12:07:00,60.6,32.1,0.00,South,188,0.0,0.0,34,0.00,,---,0.00,VWS V15.00,2014-04-20 16:07:00,
2014-04-20 12:13:00,61.0,32.4,0.00,South,171,0.0,0.0,34,0.00,,---,0.00,VWS V15.00,2014-04-20 16:13:00,
2014-04-20 12:19:00,61.5,32.9,0.00,SE,129,0.0,0.0,34,0.00,,---,0.00,VWS V15.00,2014-04-20 16:19:00,
2014-04-20 12:24:00,61.7,33.1,0.00,SSW,197,0.0,0.0,34,0.00,,---,0.00,VWS V15.00,2014-04-20 16:24:00,
2014-04-20 12:30:00,61.7,33.1,0.00,SSE,151,0.0,0.0,34,0.00,,---,0.00,VWS V15.00,2014-04-20 16:30:00,
2014-04-20 13:00:00,64.6,34.8,0.00,ESE,123,0.0,3.6,33,0.00,,---,0.00,VWS V15.00,2014-04-20 17:00:00,